createdAt,value
2018-02-18T00:00:35.377Z,19.20
2018-02-18T00:01:37.862Z,19.18
2018-02-18T00:02:40.341Z,19.16
2018-02-18T00:03:42.827Z,19.18
2018-02-18T00:04:45.375Z,19.15
2018-02-18T00:05:47.856Z,19.13
2018-02-18T00:06:50.319Z,19.10
2018-02-18T00:07:52.795Z,19.09
2018-02-18T00:08:55.269Z,19.06
2018-02-18T00:09:57.740Z,19.04
2018-02-18T00:11:00.217Z,19.02
2018-02-18T00:12:02.693Z,19.00
2018-02-18T00:13:05.177Z,18.99
2018-02-18T00:14:09.598Z,18.98
2018-02-18T00:15:12.778Z,18.96
2018-02-18T00:16:15.278Z,18.95
2018-02-18T00:17:17.761Z,18.94
2018-02-18T00:18:20.231Z,18.93
2018-02-18T00:19:22.691Z,18.93
2018-02-18T00:20:25.179Z,18.91
2018-02-18T00:21:27.645Z,18.91
2018-02-18T00:22:30.129Z,18.88
2018-02-18T00:23:32.623Z,18.88
2018-02-18T00:24:35.114Z,18.87
2018-02-18T00:25:37.585Z,18.85
2018-02-18T00:26:40.052Z,18.83
2018-02-18T00:27:42.534Z,18.82
2018-02-18T00:28:44.999Z,18.81
2018-02-18T00:29:47.466Z,18.78
2018-02-18T00:30:49.935Z,18.76
2018-02-18T00:31:52.399Z,18.73
2018-02-18T00:32:54.867Z,18.72
2018-02-18T00:33:57.369Z,18.70
2018-02-18T00:34:59.853Z,18.69
2018-02-18T00:36:02.335Z,18.67
2018-02-18T00:37:04.821Z,18.65
2018-02-18T00:38:07.295Z,18.64
2018-02-18T00:39:09.764Z,18.63
2018-02-18T00:40:12.236Z,18.62
2018-02-18T00:41:14.698Z,18.62
2018-02-18T00:42:17.168Z,18.61
2018-02-18T00:43:19.634Z,18.60
2018-02-18T00:44:22.148Z,18.58
2018-02-18T00:45:24.625Z,18.57
2018-02-18T00:46:27.109Z,18.55
2018-02-18T00:47:29.577Z,18.54
2018-02-18T00:48:32.065Z,18.52
2018-02-18T00:49:34.526Z,18.52
2018-02-18T00:50:37.001Z,18.51
2018-02-18T00:51:39.501Z,18.50
2018-02-18T00:52:42.002Z,18.48
2018-02-18T00:53:44.485Z,18.47
2018-02-18T00:54:46.963Z,18.47
2018-02-18T00:55:49.441Z,18.46
2018-02-18T00:56:51.926Z,18.44
2018-02-18T00:57:54.399Z,18.43
2018-02-18T00:58:56.889Z,18.42
2018-02-18T00:59:59.366Z,18.41
2018-02-18T01:01:01.827Z,18.40
2018-02-18T01:02:04.322Z,18.40
2018-02-18T01:03:06.803Z,18.38
2018-02-18T01:04:09.274Z,18.37
2018-02-18T01:05:11.773Z,18.36
2018-02-18T01:06:14.271Z,18.35
2018-02-18T01:07:16.746Z,18.33
2018-02-18T01:08:19.224Z,18.33
2018-02-18T01:09:21.708Z,18.33
2018-02-18T01:10:24.201Z,18.32
2018-02-18T01:11:26.685Z,18.32
2018-02-18T01:12:29.163Z,18.31
2018-02-18T01:13:31.641Z,18.30
2018-02-18T01:14:34.116Z,18.30
2018-02-18T01:15:36.589Z,18.29
2018-02-18T01:16:39.072Z,18.28
2018-02-18T01:17:41.549Z,18.27
2018-02-18T01:18:44.038Z,18.25
2018-02-18T01:19:46.515Z,18.25
2018-02-18T01:20:49.001Z,18.25
2018-02-18T01:21:51.466Z,18.25
2018-02-18T01:22:53.946Z,18.27
2018-02-18T01:23:56.435Z,18.27
2018-02-18T01:24:58.915Z,18.28
2018-02-18T01:26:01.375Z,18.29
2018-02-18T01:27:03.839Z,18.34
2018-02-18T01:28:06.322Z,18.40
2018-02-18T01:29:08.787Z,18.49
2018-02-18T01:30:11.261Z,18.57
2018-02-18T01:31:13.743Z,18.62
2018-02-18T01:32:16.316Z,18.67
2018-02-18T01:33:18.801Z,18.74
2018-02-18T01:34:21.271Z,18.81
2018-02-18T01:35:23.739Z,18.87
2018-02-18T01:36:26.199Z,18.89
2018-02-18T01:37:28.703Z,18.91
2018-02-18T01:38:31.197Z,18.92
2018-02-18T01:39:33.667Z,18.94
2018-02-18T01:40:36.131Z,18.95
2018-02-18T01:41:38.617Z,18.97
2018-02-18T01:42:41.083Z,18.98
2018-02-18T01:43:43.574Z,18.98
2018-02-18T01:44:46.057Z,18.97
2018-02-18T01:45:48.523Z,18.96
2018-02-18T01:46:50.995Z,18.96
2018-02-18T01:47:53.477Z,18.95
2018-02-18T01:48:55.943Z,18.93
2018-02-18T01:49:58.423Z,18.91
2018-02-18T01:51:00.896Z,18.91
2018-02-18T01:52:03.386Z,18.91
2018-02-18T01:53:05.873Z,18.90
2018-02-18T01:54:08.351Z,18.88
2018-02-18T01:55:10.834Z,18.86
2018-02-18T01:56:13.311Z,18.84
2018-02-18T01:57:15.801Z,18.82
2018-02-18T01:58:18.282Z,18.80
2018-02-18T01:59:20.761Z,18.77
2018-02-18T02:00:23.241Z,18.76
2018-02-18T02:01:25.711Z,18.74
2018-02-18T02:02:28.212Z,18.74
2018-02-18T02:03:30.689Z,18.72
2018-02-18T02:04:33.169Z,18.71
2018-02-18T02:05:35.658Z,18.71
2018-02-18T02:06:38.135Z,18.69
2018-02-18T02:07:40.693Z,18.69
2018-02-18T02:08:43.167Z,18.68
2018-02-18T02:09:45.631Z,18.66
2018-02-18T02:10:48.109Z,18.66
2018-02-18T02:11:50.587Z,18.64
2018-02-18T02:12:53.073Z,18.63
2018-02-18T02:13:55.546Z,18.62
2018-02-18T02:14:58.044Z,18.60
2018-02-18T02:16:00.533Z,18.59
2018-02-18T02:17:03.009Z,18.58
2018-02-18T02:18:05.484Z,18.56
2018-02-18T02:19:07.947Z,18.55
2018-02-18T02:20:10.429Z,18.54
2018-02-18T02:21:12.906Z,18.53
2018-02-18T02:22:15.389Z,18.51
2018-02-18T02:23:17.889Z,18.50
2018-02-18T02:24:20.375Z,18.48
2018-02-18T02:25:22.843Z,18.50
2018-02-18T02:26:25.317Z,18.54
2018-02-18T02:27:27.820Z,18.59
2018-02-18T02:28:30.331Z,18.69
2018-02-18T02:29:32.809Z,18.75
2018-02-18T02:30:35.294Z,18.81
2018-02-18T02:31:37.772Z,18.92
2018-02-18T02:32:40.261Z,18.97
2018-02-18T02:33:42.753Z,19.03
2018-02-18T02:34:45.233Z,19.04
2018-02-18T02:35:47.709Z,19.06
2018-02-18T02:36:50.185Z,19.10
2018-02-18T02:37:52.682Z,19.11
2018-02-18T02:38:55.263Z,19.13
2018-02-18T02:39:57.780Z,19.13
2018-02-18T02:41:00.253Z,19.14
2018-02-18T02:42:02.752Z,19.15
2018-02-18T02:43:05.244Z,19.13
2018-02-18T02:44:07.721Z,19.12
2018-02-18T02:45:10.199Z,19.10
2018-02-18T02:46:12.689Z,19.09
2018-02-18T02:47:15.181Z,19.07
2018-02-18T02:48:17.647Z,19.05
2018-02-18T02:49:20.159Z,19.04
2018-02-18T02:50:22.639Z,19.02
2018-02-18T02:51:25.115Z,19.00
2018-02-18T02:52:27.596Z,19.00
2018-02-18T02:53:30.083Z,18.97
2018-02-18T02:54:32.566Z,18.95
2018-02-18T02:55:35.031Z,18.93
2018-02-18T02:56:37.529Z,18.91
2018-02-18T02:57:40.014Z,18.89
2018-02-18T02:58:42.494Z,18.86
2018-02-18T02:59:45.013Z,18.85
2018-02-18T03:00:47.507Z,18.82
2018-02-18T03:01:49.968Z,18.80
2018-02-18T03:02:52.502Z,18.78
2018-02-18T03:03:54.975Z,18.76
2018-02-18T03:04:57.441Z,18.75
2018-02-18T03:05:59.929Z,18.75
2018-02-18T03:07:02.400Z,18.75
2018-02-18T03:08:04.891Z,18.73
2018-02-18T03:09:07.372Z,18.71
2018-02-18T03:10:09.840Z,18.69
2018-02-18T03:11:12.310Z,18.67
2018-02-18T03:12:14.776Z,18.65
2018-02-18T03:13:17.302Z,18.63
2018-02-18T03:14:19.781Z,18.61
2018-02-18T03:15:22.270Z,18.59
2018-02-18T03:16:24.771Z,18.57
2018-02-18T03:17:27.239Z,18.56
2018-02-18T03:18:29.777Z,18.54
2018-02-18T03:19:32.248Z,18.52
2018-02-18T03:20:34.715Z,18.53
2018-02-18T03:21:37.183Z,18.57
2018-02-18T03:22:39.647Z,18.63
2018-02-18T03:23:42.140Z,18.71
2018-02-18T03:24:44.608Z,18.77
2018-02-18T03:25:47.081Z,18.85
2018-02-18T03:26:49.548Z,18.91
2018-02-18T03:27:52.035Z,18.95
2018-02-18T03:28:54.546Z,19.00
2018-02-18T03:29:57.027Z,19.03
2018-02-18T03:30:59.505Z,19.07
2018-02-18T03:32:01.969Z,19.10
2018-02-18T03:33:04.445Z,19.11
2018-02-18T03:34:06.931Z,19.10
2018-02-18T03:35:09.401Z,19.11
2018-02-18T03:36:11.905Z,19.12
2018-02-18T03:37:14.373Z,19.11
2018-02-18T03:38:16.847Z,19.10
2018-02-18T03:39:19.357Z,19.09
2018-02-18T03:40:21.838Z,19.09
2018-02-18T03:41:24.303Z,19.06
2018-02-18T03:42:26.767Z,19.04
2018-02-18T03:43:29.243Z,19.01
2018-02-18T03:44:31.753Z,18.99
2018-02-18T03:45:34.226Z,18.98
2018-02-18T03:46:36.700Z,18.96
2018-02-18T03:47:39.165Z,18.94
2018-02-18T03:48:41.631Z,18.93
2018-02-18T03:49:44.133Z,18.91
2018-02-18T03:50:46.610Z,18.89
2018-02-18T03:51:49.100Z,18.86
2018-02-18T03:52:51.577Z,18.83
2018-02-18T03:53:54.046Z,18.82
2018-02-18T03:54:56.602Z,18.79
2018-02-18T03:55:59.081Z,18.77
2018-02-18T03:57:01.555Z,18.74
2018-02-18T03:58:04.089Z,18.72
2018-02-18T03:59:06.546Z,18.71
2018-02-18T04:00:09.050Z,18.69
2018-02-18T04:01:11.527Z,18.68
2018-02-18T04:02:14.021Z,18.66
2018-02-18T04:03:16.495Z,18.65
2018-02-18T04:04:18.967Z,18.64
2018-02-18T04:05:21.462Z,18.62
2018-02-18T04:06:23.937Z,18.60
2018-02-18T04:07:26.415Z,18.59
2018-02-18T04:08:28.890Z,18.57
2018-02-18T04:09:31.389Z,18.56
2018-02-18T04:10:33.883Z,18.55
2018-02-18T04:11:36.351Z,18.54
2018-02-18T04:12:38.827Z,18.53
2018-02-18T04:13:41.303Z,18.55
2018-02-18T04:14:43.830Z,18.58
2018-02-18T04:15:46.329Z,18.66
2018-02-18T04:16:48.818Z,18.71
2018-02-18T04:17:51.309Z,18.76
2018-02-18T04:18:53.786Z,18.83
2018-02-18T04:19:56.251Z,18.85
2018-02-18T04:20:58.794Z,18.90
2018-02-18T04:22:01.272Z,18.92
2018-02-18T04:23:03.758Z,18.96
2018-02-18T04:24:06.228Z,18.99
2018-02-18T04:25:08.691Z,19.00
2018-02-18T04:26:11.191Z,18.99
2018-02-18T04:27:13.673Z,19.02
2018-02-18T04:28:16.160Z,19.03
2018-02-18T04:29:18.623Z,19.03
2018-02-18T04:30:21.106Z,19.02
2018-02-18T04:31:23.596Z,19.03
2018-02-18T04:32:26.058Z,19.03
2018-02-18T04:33:28.549Z,19.01
2018-02-18T04:34:31.038Z,18.98
2018-02-18T04:35:33.537Z,18.98
2018-02-18T04:36:36.045Z,18.96
2018-02-18T04:37:38.503Z,18.95
2018-02-18T04:38:40.971Z,18.91
2018-02-18T04:39:43.466Z,18.90
2018-02-18T04:40:45.942Z,18.90
2018-02-18T04:41:48.449Z,18.89
2018-02-18T04:42:50.926Z,18.86
2018-02-18T04:43:53.391Z,18.84
2018-02-18T04:44:55.856Z,18.81
2018-02-18T04:45:58.319Z,18.78
2018-02-18T04:47:00.811Z,18.75
2018-02-18T04:48:03.294Z,18.72
2018-02-18T04:49:05.783Z,18.71
2018-02-18T04:50:08.266Z,18.69
2018-02-18T04:51:10.763Z,18.66
2018-02-18T04:52:13.248Z,18.65
2018-02-18T04:53:15.721Z,18.63
2018-02-18T04:54:18.191Z,18.61
2018-02-18T04:55:20.672Z,18.59
2018-02-18T04:56:23.153Z,18.57
2018-02-18T04:57:25.628Z,18.56
2018-02-18T04:58:28.096Z,18.54
2018-02-18T04:59:30.575Z,18.55
2018-02-18T05:00:33.069Z,18.58
2018-02-18T05:01:35.545Z,18.63
2018-02-18T05:02:38.043Z,18.68
2018-02-18T05:03:40.517Z,18.75
2018-02-18T05:04:42.980Z,18.87
2018-02-18T05:05:45.459Z,18.93
2018-02-18T05:06:47.935Z,18.98
2018-02-18T05:07:50.422Z,19.02
2018-02-18T05:08:52.887Z,19.06
2018-02-18T05:09:55.365Z,19.08
2018-02-18T05:10:57.841Z,19.09
2018-02-18T05:12:00.304Z,19.09
2018-02-18T05:13:02.787Z,19.09
2018-02-18T05:14:05.247Z,19.06
2018-02-18T05:15:07.733Z,19.06
2018-02-18T05:16:10.208Z,19.06
2018-02-18T05:17:12.679Z,19.05
2018-02-18T05:18:15.175Z,19.03
2018-02-18T05:19:17.658Z,19.02
2018-02-18T05:20:20.122Z,18.99
2018-02-18T05:21:22.601Z,18.96
2018-02-18T05:22:25.081Z,18.95
2018-02-18T05:23:27.563Z,18.93
2018-02-18T05:24:30.034Z,18.93
2018-02-18T05:25:32.509Z,18.90
2018-02-18T05:26:34.993Z,18.88
2018-02-18T05:27:37.476Z,18.86
2018-02-18T05:28:39.989Z,18.83
2018-02-18T05:29:42.461Z,18.81
2018-02-18T05:30:44.930Z,18.79
2018-02-18T05:31:47.399Z,18.76
2018-02-18T05:32:49.888Z,18.75
2018-02-18T05:33:52.397Z,18.74
2018-02-18T05:34:54.877Z,18.72
2018-02-18T05:35:58.215Z,18.71
2018-02-18T05:37:00.710Z,18.69
2018-02-18T05:38:03.179Z,18.68
2018-02-18T05:39:05.671Z,18.67
2018-02-18T05:40:08.150Z,18.65
2018-02-18T05:41:10.615Z,18.63
2018-02-18T05:42:13.079Z,18.60
2018-02-18T05:43:15.544Z,18.57
2018-02-18T05:44:18.039Z,18.55
2018-02-18T05:45:20.507Z,18.54
2018-02-18T05:46:22.975Z,18.53
2018-02-18T05:47:25.436Z,18.55
2018-02-18T05:48:28.393Z,18.61
2018-02-18T05:49:30.875Z,18.67
2018-02-18T05:50:33.349Z,18.73
2018-02-18T05:51:35.815Z,18.76
2018-02-18T05:52:38.280Z,18.83
2018-02-18T05:53:40.765Z,18.86
2018-02-18T05:54:43.261Z,18.89
2018-02-18T05:55:45.749Z,18.92
2018-02-18T05:56:48.211Z,18.96
2018-02-18T05:57:50.684Z,18.97
2018-02-18T05:58:53.260Z,18.98
2018-02-18T05:59:55.751Z,18.98
2018-02-18T06:00:58.237Z,18.97
2018-02-18T06:02:00.716Z,18.99
2018-02-18T06:03:03.183Z,18.97
2018-02-18T06:04:05.700Z,18.96
2018-02-18T06:05:08.177Z,18.96
2018-02-18T06:06:10.653Z,18.94
2018-02-18T06:07:13.119Z,18.91
2018-02-18T06:08:15.582Z,18.91
2018-02-18T06:09:18.071Z,18.90
2018-02-18T06:10:20.535Z,18.88
2018-02-18T06:11:22.999Z,18.86
2018-02-18T06:12:25.484Z,18.84
2018-02-18T06:13:27.958Z,18.81
2018-02-18T06:14:30.456Z,18.78
2018-02-18T06:15:32.945Z,18.74
2018-02-18T06:16:35.433Z,18.71
2018-02-18T06:17:37.912Z,18.68
2018-02-18T06:18:40.401Z,18.66
2018-02-18T06:19:42.896Z,18.64
2018-02-18T06:20:45.379Z,18.62
2018-02-18T06:21:47.867Z,18.60
2018-02-18T06:22:50.345Z,18.59
2018-02-18T06:23:52.842Z,18.58
2018-02-18T06:24:55.336Z,18.56
2018-02-18T06:25:57.815Z,18.55
2018-02-18T06:27:00.301Z,18.53
2018-02-18T06:28:02.783Z,18.53
2018-02-18T06:29:05.305Z,18.54
2018-02-18T06:30:07.793Z,18.62
2018-02-18T06:31:10.281Z,18.71
2018-02-18T06:32:12.762Z,18.78
2018-02-18T06:33:15.281Z,18.87
2018-02-18T06:34:17.810Z,18.91
2018-02-18T06:35:20.298Z,18.99
2018-02-18T06:36:22.775Z,19.03
2018-02-18T06:38:42.323Z,19.12
2018-02-18T06:39:44.802Z,19.13
2018-02-18T06:40:47.275Z,19.14
2018-02-18T06:41:49.752Z,19.16
2018-02-18T06:42:52.234Z,19.17
2018-02-18T06:43:54.722Z,19.17
2018-02-18T06:44:57.213Z,19.17
2018-02-18T06:45:59.694Z,19.16
2018-02-18T06:47:02.180Z,19.13
2018-02-18T06:48:04.643Z,19.12
2018-02-18T06:49:07.116Z,19.08
2018-02-18T06:50:09.591Z,19.06
2018-02-18T06:51:12.088Z,19.04
2018-02-18T06:52:14.568Z,19.01
2018-02-18T06:53:17.061Z,18.99
2018-02-18T06:54:19.537Z,18.98
2018-02-18T06:55:22.017Z,18.96
2018-02-18T06:56:24.484Z,18.93
2018-02-18T06:57:26.946Z,18.90
2018-02-18T06:58:29.438Z,18.88
2018-02-18T06:59:31.925Z,18.85
2018-02-18T07:00:34.407Z,18.82
2018-02-18T07:01:36.894Z,18.79
2018-02-18T07:02:39.428Z,18.76
2018-02-18T07:03:41.905Z,18.74
2018-02-18T07:04:44.385Z,18.72
2018-02-18T07:05:46.852Z,18.68
2018-02-18T07:06:49.327Z,18.65
2018-02-18T07:07:51.804Z,18.62
2018-02-18T07:08:54.288Z,18.61
2018-02-18T07:09:56.766Z,18.59
2018-02-18T07:10:59.267Z,18.56
2018-02-18T07:12:01.739Z,18.56
2018-02-18T07:13:04.208Z,18.56
2018-02-18T07:14:06.742Z,18.56
2018-02-18T07:15:09.223Z,18.60
2018-02-18T07:16:11.701Z,18.67
2018-02-18T07:17:14.186Z,18.70
2018-02-18T07:18:16.655Z,18.81
2018-02-18T07:19:19.133Z,18.87
2018-02-18T07:20:21.613Z,18.91
2018-02-18T07:21:24.098Z,18.95
2018-02-18T07:22:26.558Z,18.98
2018-02-18T07:23:29.042Z,19.01
2018-02-18T07:24:31.499Z,19.02
2018-02-18T07:25:33.983Z,19.02
2018-02-18T07:26:36.460Z,19.04
2018-02-18T07:27:38.942Z,19.03
2018-02-18T07:28:41.429Z,19.05
2018-02-18T07:29:43.907Z,19.04
2018-02-18T07:30:46.395Z,19.03
2018-02-18T07:31:48.946Z,19.02
2018-02-18T07:32:51.434Z,19.02
2018-02-18T07:33:53.924Z,19.01
2018-02-18T07:34:56.590Z,19.00
2018-02-18T07:35:59.055Z,19.01
2018-02-18T07:37:01.553Z,19.00
2018-02-18T07:38:04.046Z,18.97
2018-02-18T07:39:06.523Z,18.95
2018-02-18T07:40:09.016Z,18.93
2018-02-18T07:41:11.499Z,18.90
2018-02-18T07:42:13.975Z,18.88
2018-02-18T07:43:16.452Z,18.86
2018-02-18T07:44:18.929Z,18.86
2018-02-18T07:45:21.429Z,18.85
2018-02-18T07:46:23.915Z,18.84
2018-02-18T07:47:26.395Z,18.83
2018-02-18T07:48:28.867Z,18.81
2018-02-18T07:49:31.349Z,18.80
2018-02-18T07:50:33.843Z,18.78
2018-02-18T07:51:36.312Z,18.78
2018-02-18T07:52:38.780Z,18.75
2018-02-18T07:53:41.247Z,18.74
2018-02-18T07:54:43.717Z,18.72
2018-02-18T07:55:46.188Z,18.72
2018-02-18T07:56:48.651Z,18.73
2018-02-18T07:57:51.137Z,18.76
2018-02-18T07:58:53.629Z,18.86
2018-02-18T07:59:56.119Z,18.91
2018-02-18T08:00:58.718Z,18.99
2018-02-18T08:02:01.201Z,19.00
2018-02-18T08:03:03.677Z,19.04
2018-02-18T08:04:06.144Z,19.07
2018-02-18T08:05:08.614Z,19.10
2018-02-18T08:06:11.093Z,19.09
2018-02-18T08:07:13.567Z,19.10
2018-02-18T08:08:16.039Z,19.09
2018-02-18T08:09:18.507Z,19.08
2018-02-18T08:10:20.989Z,19.06
2018-02-18T08:11:23.468Z,19.04
2018-02-18T08:12:25.948Z,19.02
2018-02-18T08:13:28.467Z,19.00
2018-02-18T08:14:30.953Z,18.98
2018-02-18T08:15:33.431Z,18.96
2018-02-18T08:16:35.913Z,18.94
2018-02-18T08:17:38.432Z,18.92
2018-02-18T08:18:40.887Z,18.90
2018-02-18T08:19:43.354Z,18.86
2018-02-18T08:20:45.836Z,18.83
2018-02-18T08:21:48.299Z,18.71
2018-02-18T08:22:50.791Z,18.56
2018-02-18T08:23:53.258Z,18.42
2018-02-18T08:24:55.753Z,18.28
2018-02-18T08:25:58.250Z,18.11
2018-02-18T08:27:00.749Z,17.99
2018-02-18T08:28:03.236Z,17.93
2018-02-18T08:29:05.727Z,17.87
2018-02-18T08:30:08.239Z,17.83
2018-02-18T08:31:10.724Z,17.88
2018-02-18T08:32:13.204Z,17.96
2018-02-18T08:33:15.687Z,18.09
2018-02-18T08:34:18.171Z,18.26
2018-02-18T08:35:20.715Z,18.41
2018-02-18T08:36:23.217Z,18.56
2018-02-18T08:37:25.814Z,18.71
2018-02-18T08:38:28.920Z,18.82
2018-02-18T08:39:31.409Z,18.93
2018-02-18T08:40:33.910Z,18.99
2018-02-18T08:41:36.379Z,19.09
2018-02-18T08:42:38.865Z,19.16
2018-02-18T08:43:41.349Z,19.21
2018-02-18T08:44:43.837Z,19.24
2018-02-18T08:45:46.304Z,19.25
2018-02-18T08:46:48.789Z,19.30
2018-02-18T08:47:51.290Z,19.41
2018-02-18T08:48:53.763Z,19.47
2018-02-18T08:49:56.227Z,19.55
2018-02-18T08:50:58.717Z,19.59
2018-02-18T08:52:01.222Z,19.65
2018-02-18T08:53:03.691Z,19.68
2018-02-18T08:54:06.178Z,19.72
2018-02-18T08:55:08.664Z,19.73
2018-02-18T08:56:11.150Z,19.74
2018-02-18T08:57:13.619Z,19.75
2018-02-18T08:58:16.105Z,19.74
2018-02-18T08:59:18.579Z,19.75
2018-02-18T09:00:21.047Z,19.74
2018-02-18T09:01:23.537Z,19.75
2018-02-18T09:02:26.019Z,19.78
2018-02-18T09:03:28.505Z,19.84
2018-02-18T09:04:30.977Z,19.90
2018-02-18T09:05:33.452Z,19.99
2018-02-18T09:06:35.947Z,20.10
2018-02-18T09:07:38.420Z,20.19
2018-02-18T09:08:40.910Z,20.26
2018-02-18T09:09:43.394Z,20.29
2018-02-18T09:10:45.865Z,20.31
2018-02-18T09:11:48.339Z,20.31
2018-02-18T09:12:50.803Z,20.30
2018-02-18T09:13:53.290Z,20.28
2018-02-18T09:14:55.773Z,20.27
2018-02-18T09:15:58.241Z,20.24
2018-02-18T09:17:00.722Z,20.23
2018-02-18T09:18:03.200Z,20.23
2018-02-18T09:19:05.672Z,20.21
2018-02-18T09:20:08.265Z,20.23
2018-02-18T09:21:10.755Z,20.29
2018-02-18T09:22:13.268Z,20.35
2018-02-18T09:23:15.769Z,20.44
2018-02-18T09:24:18.261Z,20.49
2018-02-18T09:25:20.750Z,20.52
2018-02-18T09:26:23.238Z,20.55
2018-02-18T09:27:25.712Z,20.59
2018-02-18T09:28:28.209Z,20.60
2018-02-18T09:29:30.693Z,20.59
2018-02-18T09:30:33.191Z,20.56
2018-02-18T09:31:35.668Z,20.53
2018-02-18T09:32:38.149Z,20.50
2018-02-18T09:33:40.621Z,20.47
2018-02-18T09:34:43.096Z,20.43
2018-02-18T09:35:45.583Z,20.38
2018-02-18T09:36:48.056Z,20.39
2018-02-18T09:37:50.543Z,20.45
2018-02-18T09:38:53.034Z,20.50
2018-02-18T09:39:55.504Z,20.57
2018-02-18T09:40:58.447Z,20.61
2018-02-18T09:42:01.244Z,20.65
2018-02-18T09:43:03.768Z,20.68
2018-02-18T09:44:06.255Z,20.72
2018-02-18T09:45:08.730Z,20.73
2018-02-18T09:46:11.218Z,20.71
2018-02-18T09:47:13.691Z,20.72
2018-02-18T09:48:16.163Z,20.69
2018-02-18T09:49:18.649Z,20.66
2018-02-18T09:50:21.138Z,20.63
2018-02-18T09:51:23.611Z,20.59
2018-02-18T09:52:26.137Z,20.57
2018-02-18T09:53:28.608Z,20.56
2018-02-18T09:54:31.117Z,20.59
2018-02-18T09:55:33.585Z,20.61
2018-02-18T09:56:36.073Z,20.70
2018-02-18T09:57:38.539Z,20.74
2018-02-18T09:58:41.022Z,20.80
2018-02-18T09:59:43.493Z,20.83
2018-02-18T10:00:45.977Z,20.90
2018-02-18T10:01:48.443Z,20.92
2018-02-18T10:02:50.929Z,20.92
2018-02-18T10:03:53.404Z,20.91
2018-02-18T10:04:55.876Z,20.90
2018-02-18T10:05:58.385Z,20.87
2018-02-18T10:07:01.026Z,20.86
2018-02-18T10:08:03.514Z,20.84
2018-02-18T10:09:05.994Z,20.81
2018-02-18T10:10:08.472Z,20.81
2018-02-18T10:11:10.941Z,20.80
2018-02-18T10:12:13.411Z,20.84
2018-02-18T10:13:15.913Z,20.87
2018-02-18T10:14:18.677Z,20.92
2018-02-18T10:15:21.146Z,20.96
2018-02-18T10:16:23.644Z,21.02
2018-02-18T10:17:26.121Z,21.03
2018-02-18T10:18:29.319Z,21.04
2018-02-18T10:19:31.801Z,21.11
2018-02-18T10:20:34.271Z,21.12
2018-02-18T10:21:36.765Z,21.12
2018-02-18T10:22:39.239Z,21.12
2018-02-18T10:23:41.785Z,21.16
2018-02-18T10:24:44.285Z,21.16
2018-02-18T10:25:46.760Z,21.17
2018-02-18T10:26:49.236Z,21.17
2018-02-18T10:27:51.741Z,21.16
2018-02-18T10:28:54.263Z,21.13
2018-02-18T10:29:57.125Z,21.10
2018-02-18T10:30:59.612Z,21.13
2018-02-18T10:32:02.086Z,21.15
2018-02-18T10:33:04.559Z,21.21
2018-02-18T10:34:07.045Z,21.27
2018-02-18T10:35:09.528Z,21.30
2018-02-18T10:36:12.030Z,21.34
2018-02-18T10:37:14.499Z,21.33
2018-02-18T10:38:16.974Z,21.36
2018-02-18T10:39:19.454Z,21.35
2018-02-18T10:40:21.929Z,21.33
2018-02-18T10:41:24.427Z,21.29
2018-02-18T10:42:26.922Z,21.24
2018-02-18T10:43:29.387Z,21.19
2018-02-18T10:44:31.851Z,21.12
2018-02-18T10:45:34.345Z,21.04
2018-02-18T10:46:37.454Z,20.95
2018-02-18T10:47:39.933Z,20.86
2018-02-18T10:48:42.402Z,20.82
2018-02-18T10:49:44.892Z,20.73
2018-02-18T10:50:47.391Z,20.68
2018-02-18T10:51:49.877Z,20.63
2018-02-18T10:52:52.356Z,20.61
2018-02-18T10:53:54.840Z,20.57
2018-02-18T10:54:57.311Z,20.54
2018-02-18T10:55:59.853Z,20.51
2018-02-18T10:57:02.323Z,20.47
2018-02-18T10:58:04.809Z,20.42
2018-02-18T10:59:07.310Z,20.37
2018-02-18T11:00:09.798Z,20.35
2018-02-18T11:01:12.268Z,20.32
2018-02-18T11:02:14.760Z,20.29
2018-02-18T11:03:17.232Z,20.26
2018-02-18T11:04:19.721Z,20.24
2018-02-18T11:05:22.207Z,20.22
2018-02-18T11:06:24.675Z,20.20
2018-02-18T11:07:27.152Z,20.19
2018-02-18T11:08:29.632Z,20.16
2018-02-18T11:09:32.117Z,20.14
2018-02-18T11:10:34.607Z,20.12
2018-02-18T11:11:37.080Z,20.10
2018-02-18T11:12:39.547Z,20.07
2018-02-18T11:13:42.026Z,20.05
2018-02-18T11:14:44.527Z,20.02
2018-02-18T11:15:47.009Z,20.01
2018-02-18T11:16:49.507Z,19.99
2018-02-18T11:17:51.976Z,19.99
2018-02-18T11:18:54.456Z,19.97
2018-02-18T11:19:56.924Z,19.95
2018-02-18T11:20:59.439Z,19.94
2018-02-18T11:22:01.945Z,19.92
2018-02-18T11:23:04.557Z,19.91
2018-02-18T11:24:07.116Z,19.89
2018-02-18T11:25:09.618Z,19.88
2018-02-18T11:26:12.134Z,19.86
2018-02-18T11:27:14.727Z,19.84
2018-02-18T11:28:17.207Z,19.82
2018-02-18T11:29:19.693Z,19.80
2018-02-18T11:30:22.182Z,19.78
2018-02-18T11:31:24.648Z,19.75
2018-02-18T11:32:27.116Z,19.74
2018-02-18T11:33:29.599Z,19.71
2018-02-18T11:34:32.063Z,19.71
2018-02-18T11:35:34.595Z,19.69
2018-02-18T11:36:37.074Z,19.68
2018-02-18T11:37:39.583Z,19.66
2018-02-18T11:38:42.060Z,19.65
2018-02-18T11:39:44.527Z,19.64
2018-02-18T11:40:46.998Z,19.63
2018-02-18T11:41:49.724Z,19.61
2018-02-18T11:42:52.213Z,19.59
2018-02-18T11:43:54.726Z,19.56
2018-02-18T11:44:57.299Z,19.53
2018-02-18T11:45:59.786Z,19.51
2018-02-18T11:47:02.256Z,19.50
2018-02-18T11:48:04.736Z,19.48
2018-02-18T11:49:07.208Z,19.47
2018-02-18T11:50:09.708Z,19.45
2018-02-18T11:51:12.195Z,19.45
2018-02-18T11:52:14.687Z,19.43
2018-02-18T11:53:17.185Z,19.40
2018-02-18T11:54:19.671Z,19.39
2018-02-18T11:55:22.282Z,19.38
2018-02-18T11:56:25.046Z,19.35
2018-02-18T11:57:27.540Z,19.34
2018-02-18T11:58:30.012Z,19.32
2018-02-18T11:59:32.480Z,19.30
2018-02-18T12:00:34.952Z,19.30
2018-02-18T12:01:37.422Z,19.28
2018-02-18T12:02:39.915Z,19.27
2018-02-18T12:03:42.503Z,19.26
2018-02-18T12:04:45.010Z,19.25
2018-02-18T12:05:47.510Z,19.23
2018-02-18T12:06:49.994Z,19.23
2018-02-18T12:07:52.484Z,19.21
2018-02-18T12:08:54.960Z,19.20
2018-02-18T12:09:57.444Z,19.17
2018-02-18T12:11:00.335Z,19.15
2018-02-18T12:12:02.807Z,19.14
2018-02-18T12:13:05.362Z,19.12
2018-02-18T12:14:07.883Z,19.08
2018-02-18T12:15:10.405Z,19.09
2018-02-18T12:16:12.877Z,19.09
2018-02-18T12:17:15.356Z,19.14
2018-02-18T12:18:17.917Z,19.20
2018-02-18T12:19:20.383Z,19.30
2018-02-18T12:20:22.852Z,19.42
2018-02-18T12:21:25.402Z,19.62
2018-02-18T12:22:27.871Z,19.75
2018-02-18T12:23:30.351Z,19.92
2018-02-18T12:24:32.837Z,20.12
2018-02-18T12:25:35.322Z,20.23
2018-02-18T12:26:37.824Z,20.37
2018-02-18T12:27:40.313Z,20.49
2018-02-18T12:28:42.803Z,20.56
2018-02-18T12:29:45.272Z,20.65
2018-02-18T12:30:47.753Z,20.70
2018-02-18T12:31:50.219Z,20.76
2018-02-18T12:32:52.709Z,20.79
2018-02-18T12:33:55.199Z,20.79
2018-02-18T12:34:57.754Z,20.81
2018-02-18T12:36:00.255Z,20.82
2018-02-18T12:37:02.737Z,20.84
2018-02-18T12:38:05.535Z,20.88
2018-02-18T12:39:08.124Z,20.98
2018-02-18T12:40:10.632Z,21.04
2018-02-18T12:41:13.122Z,21.14
2018-02-18T12:42:15.602Z,21.20
2018-02-18T12:43:18.068Z,21.25
2018-02-18T12:44:20.550Z,21.30
2018-02-18T12:45:23.042Z,21.34
2018-02-18T12:46:25.511Z,21.37
2018-02-18T12:47:27.991Z,21.41
2018-02-18T12:48:30.481Z,21.39
2018-02-18T12:49:32.939Z,21.36
2018-02-18T12:50:35.414Z,21.36
2018-02-18T12:51:37.915Z,21.33
2018-02-18T12:52:40.382Z,21.33
2018-02-18T12:53:42.851Z,21.34
2018-02-18T12:54:45.372Z,21.34
2018-02-18T12:55:47.850Z,21.40
2018-02-18T12:56:50.333Z,21.43
2018-02-18T12:57:52.821Z,21.54
2018-02-18T12:58:55.292Z,21.63
2018-02-18T12:59:57.865Z,21.67
2018-02-18T13:01:00.335Z,21.69
2018-02-18T13:02:02.821Z,21.73
2018-02-18T13:03:05.295Z,21.76
2018-02-18T13:04:07.773Z,21.77
2018-02-18T13:05:10.259Z,21.77
2018-02-18T13:06:12.749Z,21.75
2018-02-18T13:07:15.232Z,21.72
2018-02-18T13:08:17.705Z,21.71
2018-02-18T13:09:20.176Z,21.66
2018-02-18T13:10:22.727Z,21.65
2018-02-18T13:11:25.200Z,21.63
2018-02-18T13:12:27.685Z,21.65
2018-02-18T13:13:30.170Z,21.65
2018-02-18T13:14:32.649Z,21.72
2018-02-18T13:15:35.111Z,21.78
2018-02-18T13:16:37.590Z,21.82
2018-02-18T13:17:40.051Z,21.86
2018-02-18T13:18:42.533Z,21.87
2018-02-18T13:19:45.019Z,21.85
2018-02-18T13:20:47.506Z,21.85
2018-02-18T13:21:49.975Z,21.84
2018-02-18T13:22:52.458Z,21.81
2018-02-18T13:23:54.931Z,21.78
2018-02-18T13:24:57.403Z,21.73
2018-02-18T13:25:59.887Z,21.71